createdAt,value
2019-06-25T00:01:17.467Z,19.00
2019-06-25T00:03:46.311Z,18.90
2019-06-25T00:06:15.156Z,18.80
2019-06-25T00:08:44.052Z,18.60
2019-06-25T00:11:13.409Z,18.40
2019-06-25T00:13:42.184Z,18.40
2019-06-25T00:16:11.052Z,18.50
2019-06-25T00:18:40.224Z,18.50
2019-06-25T00:21:09.106Z,18.30
2019-06-25T00:23:37.906Z,18.30
2019-06-25T00:26:06.785Z,18.20
2019-06-25T00:28:35.856Z,18.30
2019-06-25T00:31:05.099Z,18.30
2019-06-25T00:33:33.885Z,18.30
2019-06-25T00:36:02.774Z,18.40
2019-06-25T00:38:32.343Z,18.30
2019-06-25T00:41:01.448Z,18.30
2019-06-25T00:43:30.246Z,18.30
2019-06-25T00:45:59.316Z,18.40
2019-06-25T00:48:28.439Z,18.30
2019-06-25T00:50:57.312Z,18.40
2019-06-25T00:53:26.657Z,18.20
2019-06-25T00:55:55.445Z,18.20
2019-06-25T00:58:24.273Z,18.10
2019-06-25T01:00:53.134Z,18.10
2019-06-25T01:03:27.817Z,18.00
2019-06-25T01:05:56.588Z,18.00
2019-06-25T01:08:25.599Z,17.90
2019-06-25T01:10:54.386Z,17.90
2019-06-25T01:13:23.229Z,18.00
2019-06-25T01:15:52.995Z,18.00
2019-06-25T01:18:22.105Z,18.00
2019-06-25T01:20:50.896Z,17.90
2019-06-25T01:23:19.738Z,18.00
2019-06-25T01:25:48.776Z,18.00
2019-06-25T01:28:17.804Z,17.80
2019-06-25T01:30:46.653Z,17.80
2019-06-25T01:33:15.422Z,17.80
2019-06-25T01:35:44.200Z,17.70
2019-06-25T01:38:13.100Z,17.70
2019-06-25T01:40:41.894Z,17.50
2019-06-25T01:43:11.023Z,17.50
2019-06-25T01:45:40.127Z,17.50
2019-06-25T01:48:09.047Z,17.50
2019-06-25T01:50:37.828Z,17.60
2019-06-25T01:53:06.824Z,17.50
2019-06-25T01:55:35.949Z,17.70
2019-06-25T01:58:05.223Z,17.50
2019-06-25T02:00:44.474Z,17.50
2019-06-25T02:03:04.798Z,17.60
2019-06-25T02:05:33.648Z,17.50
2019-06-25T02:08:02.596Z,17.60
2019-06-25T02:10:31.374Z,17.40
2019-06-25T02:13:00.163Z,17.40
2019-06-25T02:15:28.989Z,17.50
2019-06-25T02:17:57.855Z,17.40
2019-06-25T02:20:26.759Z,17.50
2019-06-25T02:22:55.610Z,17.40
2019-06-25T02:25:24.493Z,17.40
2019-06-25T02:27:53.587Z,17.40
2019-06-25T02:30:22.612Z,17.40
2019-06-25T02:32:51.485Z,17.50
2019-06-25T02:35:20.438Z,17.40
2019-06-25T02:37:50.008Z,17.50
2019-06-25T02:40:19.976Z,17.40
2019-06-25T02:42:48.907Z,17.40
2019-06-25T02:45:18.134Z,17.40
2019-06-25T02:47:46.980Z,17.40
2019-06-25T02:50:16.406Z,17.30
2019-06-25T02:52:45.182Z,17.20
2019-06-25T02:55:14.109Z,17.10
2019-06-25T02:57:42.886Z,17.00
2019-06-25T03:00:12.233Z,16.90
2019-06-25T03:02:41.132Z,16.90
2019-06-25T03:05:11.120Z,16.90
2019-06-25T03:07:40.026Z,16.90
2019-06-25T03:10:09.066Z,17.00
2019-06-25T03:12:37.988Z,16.90
2019-06-25T03:15:07.663Z,16.90
2019-06-25T03:17:36.819Z,16.80
2019-06-25T03:20:07.520Z,16.80
2019-06-25T03:22:36.574Z,16.80
2019-06-25T03:25:06.464Z,16.90
2019-06-25T03:27:35.416Z,17.00
2019-06-25T03:30:04.884Z,17.00
2019-06-25T03:32:33.842Z,17.00
2019-06-25T03:35:02.936Z,17.10
2019-06-25T03:37:31.722Z,17.10
2019-06-25T03:40:00.495Z,17.10
2019-06-25T03:42:29.342Z,17.20
2019-06-25T03:44:58.177Z,17.10
2019-06-25T03:47:26.942Z,17.00
2019-06-25T03:49:56.444Z,17.00
2019-06-25T03:52:25.577Z,17.00
2019-06-25T03:54:54.364Z,17.00
2019-06-25T03:57:23.197Z,17.00
2019-06-25T03:59:52.000Z,17.10
2019-06-25T04:02:20.869Z,17.20
2019-06-25T04:04:49.885Z,17.20
2019-06-25T04:07:18.660Z,17.30
2019-06-25T04:09:47.510Z,17.30
2019-06-25T04:12:16.359Z,17.30
2019-06-25T04:14:45.157Z,17.40
2019-06-25T04:17:13.937Z,17.40
2019-06-25T04:19:42.869Z,17.40
2019-06-25T04:22:11.905Z,17.60
2019-06-25T04:24:40.822Z,17.60
2019-06-25T04:27:09.622Z,17.70
2019-06-25T04:29:38.402Z,17.70
2019-06-25T04:32:07.301Z,17.70
2019-06-25T04:34:36.467Z,17.70
2019-06-25T04:37:05.324Z,17.70
2019-06-25T04:39:34.109Z,17.80
2019-06-25T04:42:03.227Z,17.80
2019-06-25T04:44:32.032Z,17.80
2019-06-25T04:47:00.893Z,18.00
2019-06-25T04:49:29.845Z,18.00
2019-06-25T04:51:59.011Z,18.20
2019-06-25T04:54:28.099Z,18.30
2019-06-25T04:56:56.949Z,18.40
2019-06-25T04:59:26.495Z,18.60
2019-06-25T05:01:55.500Z,18.70
2019-06-25T05:04:24.290Z,18.80
2019-06-25T05:06:53.503Z,18.90
2019-06-25T05:09:22.397Z,19.10
2019-06-25T05:11:51.328Z,19.20
2019-06-25T05:14:20.651Z,19.40
2019-06-25T05:16:50.464Z,19.70
2019-06-25T05:19:19.373Z,20.00
2019-06-25T05:21:49.374Z,20.10
2019-06-25T05:24:18.579Z,20.20
2019-06-25T05:26:47.901Z,20.50
2019-06-25T05:29:17.201Z,20.60
2019-06-25T05:31:46.295Z,20.60
2019-06-25T05:34:15.200Z,20.80
2019-06-25T05:36:49.814Z,21.00
2019-06-25T05:39:18.575Z,21.10
2019-06-25T05:41:47.722Z,21.30
2019-06-25T05:44:16.906Z,21.40
2019-06-25T05:46:45.700Z,21.70
2019-06-25T05:49:14.569Z,21.90
2019-06-25T05:51:43.328Z,22.20
2019-06-25T05:54:12.593Z,22.30
2019-06-25T05:56:41.619Z,22.50
2019-06-25T05:59:10.869Z,22.60
2019-06-25T06:01:39.718Z,22.70
2019-06-25T06:04:08.969Z,22.80
2019-06-25T06:06:37.785Z,23.00
2019-06-25T06:09:08.325Z,23.10
2019-06-25T06:11:37.271Z,23.20
2019-06-25T06:14:06.308Z,23.30
2019-06-25T06:16:35.420Z,23.40
2019-06-25T06:19:04.499Z,23.40
2019-06-25T06:21:33.411Z,23.50
2019-06-25T06:24:02.243Z,23.50
2019-06-25T06:26:31.090Z,23.60
2019-06-25T06:29:00.007Z,23.70
2019-06-25T06:31:29.153Z,23.80
2019-06-25T06:33:58.278Z,23.70
2019-06-25T06:36:27.080Z,23.80
2019-06-25T06:38:56.338Z,23.80
2019-06-25T06:41:25.380Z,23.80
2019-06-25T06:43:54.240Z,24.00
2019-06-25T06:46:23.136Z,24.20
2019-06-25T06:52:20.331Z,24.60
2019-06-25T06:54:49.449Z,24.90
2019-06-25T06:57:20.467Z,25.00
2019-06-25T06:59:48.827Z,25.20
2019-06-25T07:02:17.694Z,25.40
2019-06-25T07:04:46.665Z,25.40
2019-06-25T07:07:15.549Z,25.70
2019-06-25T07:09:52.319Z,25.90
2019-06-25T07:12:18.929Z,26.10
2019-06-25T07:14:48.204Z,26.40
2019-06-25T07:17:17.144Z,26.60
2019-06-25T07:19:50.798Z,26.70
2019-06-25T07:22:20.201Z,26.80
2019-06-25T07:24:49.766Z,26.90
2019-06-25T07:27:18.826Z,27.00
2019-06-25T07:29:48.193Z,27.10
2019-06-25T07:32:17.238Z,27.20
2019-06-25T07:34:47.962Z,27.40
2019-06-25T07:37:16.917Z,27.60
2019-06-25T07:39:45.952Z,27.70
2019-06-25T07:42:15.228Z,27.90
2019-06-25T07:44:44.020Z,28.00
2019-06-25T07:47:12.855Z,28.20
2019-06-25T07:49:41.923Z,28.40
2019-06-25T07:52:10.943Z,28.50
2019-06-25T07:54:40.088Z,28.50
2019-06-25T07:57:09.543Z,28.70
2019-06-25T07:59:38.478Z,28.70
2019-06-25T08:02:07.328Z,28.80
2019-06-25T08:04:36.113Z,29.10
2019-06-25T08:07:05.204Z,29.10
2019-06-25T08:09:34.042Z,29.40
2019-06-25T08:12:02.867Z,29.50
2019-06-25T08:14:32.420Z,29.60
2019-06-25T08:17:01.768Z,29.60
2019-06-25T08:19:30.966Z,29.70
2019-06-25T08:22:03.210Z,30.00
2019-06-25T08:24:32.403Z,30.20
2019-06-25T08:27:01.304Z,30.40
2019-06-25T08:29:30.272Z,30.60
2019-06-25T08:31:59.187Z,30.70
2019-06-25T08:34:41.000Z,30.90
2019-06-25T08:36:58.689Z,31.20
2019-06-25T08:39:27.620Z,31.40
2019-06-25T08:41:56.467Z,31.50
2019-06-25T08:44:25.386Z,31.50
2019-06-25T08:46:54.223Z,31.60
2019-06-25T08:49:23.069Z,31.80
2019-06-25T08:51:51.844Z,31.90
2019-06-25T08:54:20.764Z,31.90
2019-06-25T08:56:49.692Z,32.00
2019-06-25T08:59:18.529Z,32.10
2019-06-25T09:01:47.469Z,32.20
2019-06-25T09:04:16.242Z,32.30
2019-06-25T09:06:45.031Z,32.40
2019-06-25T09:09:13.794Z,32.50
2019-06-25T09:11:42.788Z,32.20
2019-06-25T09:14:11.607Z,32.30
2019-06-25T09:16:40.486Z,32.50
2019-06-25T09:19:09.812Z,32.40
2019-06-25T09:21:38.685Z,32.60
2019-06-25T09:24:07.622Z,32.90
2019-06-25T09:26:36.528Z,32.90
2019-06-25T09:29:05.962Z,33.00
2019-06-25T09:31:35.288Z,33.00
2019-06-25T09:34:04.208Z,33.10
2019-06-25T09:36:32.998Z,33.20
2019-06-25T09:39:02.370Z,33.50
2019-06-25T09:41:29.998Z,33.60
2019-06-25T09:44:00.468Z,33.60
2019-06-25T09:46:28.992Z,33.80
2019-06-25T09:48:58.265Z,34.10
2019-06-25T09:51:27.131Z,34.30
2019-06-25T09:53:55.923Z,34.30
2019-06-25T09:56:24.708Z,34.20
2019-06-25T09:58:53.541Z,34.20
2019-06-25T10:01:26.321Z,33.90
2019-06-25T10:03:53.216Z,33.90
2019-06-25T10:06:22.156Z,34.20
2019-06-25T10:08:51.318Z,33.80
2019-06-25T10:11:20.373Z,34.00
2019-06-25T10:13:49.511Z,34.00
2019-06-25T10:16:18.322Z,33.70
2019-06-25T10:18:47.167Z,33.80
2019-06-25T10:21:16.164Z,33.60
2019-06-25T10:23:45.275Z,33.70
2019-06-25T10:26:14.333Z,33.80
2019-06-25T10:28:43.421Z,33.70
2019-06-25T10:31:12.240Z,33.90
2019-06-25T10:33:41.091Z,34.00
2019-06-25T10:36:09.959Z,34.10
2019-06-25T10:38:38.750Z,34.10
2019-06-25T10:41:07.527Z,33.90
2019-06-25T10:43:36.360Z,33.80
2019-06-25T10:46:05.265Z,33.90
2019-06-25T10:48:34.093Z,33.70
2019-06-25T10:51:06.551Z,33.80
2019-06-25T10:53:33.447Z,33.70
2019-06-25T10:56:02.228Z,33.80
2019-06-25T10:58:31.121Z,33.90
2019-06-25T11:01:00.062Z,33.80
2019-06-25T11:03:29.191Z,33.80
2019-06-25T11:06:06.796Z,34.00
2019-06-25T11:08:29.910Z,34.00
2019-06-25T11:10:58.727Z,34.10
2019-06-25T11:13:27.910Z,34.00
2019-06-25T11:15:56.852Z,33.90
2019-06-25T11:18:26.022Z,34.10
2019-06-25T11:20:55.358Z,34.30
2019-06-25T11:23:24.348Z,34.20
2019-06-25T11:26:16.393Z,34.10
2019-06-25T11:28:24.322Z,34.30
2019-06-25T11:30:53.181Z,34.40
2019-06-25T11:33:22.688Z,34.50
2019-06-25T11:35:51.826Z,34.20
2019-06-25T11:38:20.681Z,34.10
2019-06-25T11:40:49.844Z,34.00
2019-06-25T11:43:18.763Z,34.10
2019-06-25T11:45:47.628Z,34.30
2019-06-25T11:48:16.808Z,34.40
2019-06-25T11:50:45.673Z,34.60
2019-06-25T11:53:14.744Z,34.50
2019-06-25T11:55:43.518Z,34.60
2019-06-25T11:58:12.566Z,34.60
2019-06-25T12:00:41.359Z,34.60
2019-06-25T12:03:10.182Z,34.50
2019-06-25T12:05:39.013Z,34.70
2019-06-25T12:08:08.002Z,34.70
2019-06-25T12:10:36.782Z,35.00
2019-06-25T12:13:05.933Z,34.80
2019-06-25T12:15:34.726Z,34.90
2019-06-25T12:18:04.273Z,35.10
2019-06-25T12:20:33.209Z,35.10
2019-06-25T12:23:02.062Z,35.00
2019-06-25T12:25:30.847Z,35.10
2019-06-25T12:27:59.832Z,35.10
2019-06-25T12:30:28.764Z,35.20
2019-06-25T12:32:57.881Z,35.40
2019-06-25T12:35:26.748Z,35.40
2019-06-25T12:37:55.557Z,35.30
2019-06-25T12:40:24.627Z,35.00
2019-06-25T12:42:53.869Z,34.90
2019-06-25T12:45:23.148Z,35.00
2019-06-25T12:47:52.062Z,35.30
2019-06-25T12:50:21.450Z,35.40
2019-06-25T12:52:50.231Z,35.30
2019-06-25T12:55:19.325Z,35.40
2019-06-25T12:57:48.184Z,35.30
2019-06-25T13:00:17.745Z,35.30
2019-06-25T13:02:46.578Z,35.30
2019-06-25T13:05:15.711Z,35.40
2019-06-25T13:07:44.643Z,35.20
2019-06-25T13:10:13.855Z,35.30
2019-06-25T13:12:42.748Z,35.50
2019-06-25T13:15:11.768Z,35.60
2019-06-25T13:17:40.632Z,35.70
2019-06-25T13:20:09.853Z,35.60
2019-06-25T13:22:38.665Z,35.60
2019-06-25T13:25:09.573Z,35.60
2019-06-25T13:27:38.630Z,35.70
2019-06-25T13:30:08.363Z,35.80
2019-06-25T13:32:37.204Z,35.70
2019-06-25T13:35:06.261Z,35.80
2019-06-25T13:37:42.380Z,35.70
2019-06-25T13:40:07.652Z,35.60
2019-06-25T13:42:36.493Z,35.50
2019-06-25T13:45:09.032Z,35.40
2019-06-25T13:47:38.048Z,35.40
2019-06-25T13:50:07.521Z,35.40
2019-06-25T13:52:36.668Z,35.30
2019-06-25T13:55:06.842Z,35.10
2019-06-25T13:57:48.623Z,35.10
2019-06-25T14:00:08.016Z,35.10
2019-06-25T14:02:36.766Z,35.20
2019-06-25T14:05:06.398Z,35.50
2019-06-25T14:07:35.441Z,35.60
2019-06-25T14:10:05.019Z,35.90
2019-06-25T14:12:33.858Z,36.10
2019-06-25T14:15:04.018Z,36.20
2019-06-25T14:17:32.882Z,36.10
2019-06-25T14:20:01.787Z,35.90
2019-06-25T14:22:30.695Z,36.00
2019-06-25T14:24:59.658Z,36.20
2019-06-25T14:27:29.190Z,36.30
2019-06-25T14:29:58.159Z,36.40
2019-06-25T14:32:27.098Z,36.40
2019-06-25T14:34:56.013Z,36.60
2019-06-25T14:37:24.804Z,36.80
2019-06-25T14:39:53.835Z,36.70
2019-06-25T14:42:22.641Z,36.90
2019-06-25T14:44:51.501Z,37.10
2019-06-25T14:47:20.271Z,37.10
2019-06-25T14:49:50.024Z,37.10
2019-06-25T14:52:18.851Z,37.20
2019-06-25T14:54:48.133Z,37.30
2019-06-25T14:57:17.006Z,37.20
2019-06-25T14:59:45.811Z,37.20
2019-06-25T15:02:14.629Z,37.10
2019-06-25T15:04:43.396Z,37.30
2019-06-25T15:07:12.329Z,37.40
2019-06-25T15:09:46.590Z,37.40
2019-06-25T15:12:11.969Z,37.50
2019-06-25T15:14:40.835Z,37.20
2019-06-25T15:17:09.649Z,37.20
2019-06-25T15:19:39.031Z,37.40
2019-06-25T15:22:07.852Z,37.30
2019-06-25T15:24:39.212Z,37.20
2019-06-25T15:27:07.864Z,37.50
2019-06-25T15:29:36.688Z,37.60
2019-06-25T15:32:05.681Z,37.90
2019-06-25T15:34:34.865Z,37.90
2019-06-25T15:37:03.791Z,37.60
2019-06-25T15:39:32.934Z,37.60
2019-06-25T15:42:01.745Z,37.50
2019-06-25T15:44:30.638Z,37.40
2019-06-25T15:46:59.484Z,37.60
2019-06-25T15:49:28.600Z,37.50
2019-06-25T15:51:57.397Z,37.70
2019-06-25T15:54:26.251Z,37.80
2019-06-25T15:56:55.025Z,37.90
2019-06-25T15:59:23.828Z,37.70
2019-06-25T16:01:52.691Z,37.50
2019-06-25T16:04:22.154Z,37.40
2019-06-25T16:06:51.022Z,37.40
2019-06-25T16:09:19.882Z,37.20
2019-06-25T16:11:48.758Z,37.20
2019-06-25T16:14:17.836Z,37.20
2019-06-25T16:16:46.709Z,37.10
2019-06-25T16:19:15.623Z,36.90
2019-06-25T16:21:44.402Z,36.70
2019-06-25T16:24:13.301Z,36.60
2019-06-25T16:26:42.609Z,36.40
2019-06-25T16:29:11.677Z,36.40
2019-06-25T16:31:40.503Z,36.10
2019-06-25T16:34:09.304Z,36.10
2019-06-25T16:36:38.105Z,35.90
2019-06-25T16:39:18.579Z,35.80
2019-06-25T16:41:38.620Z,35.70
2019-06-25T16:44:07.713Z,35.80
2019-06-25T16:46:36.523Z,35.70
2019-06-25T16:49:05.321Z,35.70
2019-06-25T16:51:34.122Z,35.50
2019-06-25T16:54:03.179Z,35.30
2019-06-25T16:56:31.986Z,35.30
2019-06-25T16:59:01.365Z,35.30
2019-06-25T17:01:30.724Z,35.30
2019-06-25T17:03:59.838Z,35.10
2019-06-25T17:06:28.612Z,34.90
2019-06-25T17:08:57.463Z,34.80
2019-06-25T17:11:26.425Z,34.80
2019-06-25T17:13:55.242Z,34.80
2019-06-25T17:16:24.573Z,34.60
2019-06-25T17:18:53.889Z,34.60
2019-06-25T17:21:22.930Z,34.50
2019-06-25T17:24:01.946Z,34.30
2019-06-25T17:26:22.323Z,34.00
2019-06-25T17:28:51.087Z,33.90
2019-06-25T17:31:19.887Z,33.70
2019-06-25T17:33:48.670Z,33.70
2019-06-25T17:36:17.572Z,33.70
2019-06-25T17:38:46.620Z,33.60
2019-06-25T17:41:15.426Z,33.50
2019-06-25T17:43:47.425Z,33.50
2019-06-25T17:46:14.887Z,33.50
2019-06-25T17:48:43.646Z,33.20
2019-06-25T17:51:12.815Z,33.10
2019-06-25T17:53:41.582Z,33.20
2019-06-25T17:56:10.430Z,33.20
2019-06-25T17:58:39.312Z,32.90
2019-06-25T18:01:08.195Z,32.60
2019-06-25T18:03:37.102Z,32.50
2019-06-25T18:06:05.883Z,32.20
2019-06-25T18:08:34.655Z,32.00
2019-06-25T18:11:03.536Z,31.80
2019-06-25T18:13:32.410Z,31.80
2019-06-25T18:16:01.323Z,31.90
2019-06-25T18:18:30.125Z,32.00
2019-06-25T18:20:59.024Z,32.00
2019-06-25T18:23:27.900Z,31.80
2019-06-25T18:25:56.707Z,31.60
2019-06-25T18:28:25.590Z,31.50
2019-06-25T18:30:54.528Z,31.50
2019-06-25T18:33:23.391Z,31.50
2019-06-25T18:35:52.166Z,31.50
2019-06-25T18:38:21.391Z,31.20
2019-06-25T18:40:50.765Z,30.90
2019-06-25T18:43:19.863Z,30.90
2019-06-25T18:45:48.659Z,30.70
2019-06-25T18:48:17.655Z,30.20
2019-06-25T18:50:46.497Z,30.00
2019-06-25T18:53:15.775Z,30.00
2019-06-25T18:55:44.655Z,30.10
2019-06-25T18:58:13.825Z,30.00
2019-06-25T19:00:42.715Z,29.70
2019-06-25T19:03:11.593Z,29.50
2019-06-25T19:05:40.873Z,29.50
2019-06-25T19:08:09.709Z,29.60
2019-06-25T19:10:40.924Z,29.30
2019-06-25T19:13:09.330Z,29.00
2019-06-25T19:15:38.418Z,28.80
2019-06-25T19:18:07.220Z,28.80
2019-06-25T19:20:36.715Z,28.60
2019-06-25T19:23:05.826Z,28.50
2019-06-25T19:25:34.740Z,28.40
2019-06-25T19:28:03.641Z,28.20
2019-06-25T19:30:32.801Z,28.10
2019-06-25T19:33:02.149Z,28.00
2019-06-25T19:35:31.014Z,27.70
2019-06-25T19:38:00.081Z,27.50
2019-06-25T19:40:28.859Z,27.30
2019-06-25T19:42:58.265Z,27.20
2019-06-25T19:45:27.383Z,27.20
2019-06-25T19:47:56.288Z,27.10
2019-06-25T19:50:25.497Z,27.20
2019-06-25T19:52:54.466Z,27.20
2019-06-25T20:02:48.571Z,27.30
2019-06-25T20:05:17.809Z,27.20
2019-06-25T20:07:46.726Z,27.20
2019-06-25T20:10:16.367Z,27.10
2019-06-25T20:12:45.203Z,27.10
2019-06-25T20:15:14.125Z,27.10
2019-06-25T20:17:43.025Z,27.10
2019-06-25T20:20:11.900Z,26.90
2019-06-25T20:22:40.741Z,26.70
2019-06-25T20:25:10.461Z,26.60
2019-06-25T20:27:39.282Z,26.40
2019-06-25T20:30:08.502Z,26.30
2019-06-25T20:32:37.419Z,26.30
2019-06-25T20:35:06.437Z,26.20
2019-06-25T20:37:35.616Z,26.10
2019-06-25T20:40:05.392Z,26.00
2019-06-25T20:42:34.180Z,25.90
2019-06-25T20:45:03.245Z,26.00
2019-06-25T20:47:32.088Z,26.00
2019-06-25T20:50:02.243Z,25.90
2019-06-25T20:52:31.514Z,25.80
2019-06-25T20:55:00.353Z,25.70
2019-06-25T20:57:29.159Z,25.50
2019-06-25T20:59:58.042Z,25.50
2019-06-25T21:02:27.133Z,25.50
2019-06-25T21:04:56.199Z,25.50
2019-06-25T21:07:25.254Z,25.40
2019-06-25T21:09:54.058Z,25.40
2019-06-25T21:12:22.927Z,25.40
2019-06-25T21:14:51.784Z,25.30
2019-06-25T21:17:21.048Z,25.20
2019-06-25T21:19:49.924Z,25.10
2019-06-25T21:22:18.786Z,25.10
2019-06-25T21:24:47.740Z,25.10
2019-06-25T21:27:16.559Z,25.00
2019-06-25T21:29:45.767Z,25.00
2019-06-25T21:32:14.870Z,24.90
2019-06-25T21:34:43.802Z,24.80
2019-06-25T21:37:13.153Z,24.70
2019-06-25T21:39:42.538Z,24.70
2019-06-25T21:42:11.355Z,24.50
2019-06-25T21:44:40.279Z,24.50
2019-06-25T21:47:09.076Z,24.40
2019-06-25T21:49:40.437Z,24.40
2019-06-25T21:52:09.340Z,24.20
2019-06-25T21:54:38.174Z,24.00
2019-06-25T21:57:07.126Z,23.90
2019-06-25T21:59:35.928Z,23.90
2019-06-25T22:02:07.428Z,23.70
2019-06-25T22:04:36.830Z,23.60
2019-06-25T22:07:05.797Z,23.50
2019-06-25T22:09:34.732Z,23.50
2019-06-25T22:12:11.563Z,23.50
2019-06-25T22:14:34.241Z,23.50
2019-06-25T22:17:03.331Z,23.40
2019-06-25T22:19:32.918Z,23.30
2019-06-25T22:22:01.936Z,23.30
2019-06-25T22:24:30.977Z,23.30
2019-06-25T22:26:59.786Z,23.20
2019-06-25T22:29:28.885Z,23.30
2019-06-25T22:31:57.940Z,23.20
2019-06-25T22:34:26.732Z,23.30
2019-06-25T22:36:55.889Z,23.30
2019-06-25T22:39:24.957Z,23.20
2019-06-25T22:41:54.625Z,23.20
2019-06-25T22:44:24.298Z,23.20
2019-06-25T22:46:53.919Z,23.10
2019-06-25T22:49:22.727Z,22.80
2019-06-25T22:51:51.953Z,22.70
2019-06-25T22:54:20.744Z,22.80
2019-06-25T22:56:49.525Z,22.80
2019-06-25T22:59:18.416Z,22.80
2019-06-25T23:01:47.251Z,22.90
2019-06-25T23:04:16.071Z,22.90
2019-06-25T23:06:45.267Z,22.80
2019-06-25T23:09:14.358Z,22.90
2019-06-25T23:11:43.520Z,23.00
2019-06-25T23:14:12.300Z,22.90
2019-06-25T23:16:41.354Z,23.00
2019-06-25T23:19:10.438Z,22.90
2019-06-25T23:21:39.416Z,22.90
2019-06-25T23:24:08.224Z,22.90
2019-06-25T23:26:37.335Z,22.90
2019-06-25T23:29:06.538Z,22.80
2019-06-25T23:31:35.331Z,22.70
2019-06-25T23:34:04.206Z,22.80
2019-06-25T23:36:33.142Z,22.80
2019-06-25T23:39:01.926Z,22.60
2019-06-25T23:41:30.785Z,22.60
2019-06-25T23:43:59.566Z,22.50
2019-06-25T23:46:28.379Z,22.40
2019-06-25T23:48:57.232Z,22.30
2019-06-25T23:51:26.032Z,22.40
2019-06-25T23:53:54.805Z,22.40
2019-06-25T23:56:23.784Z,22.30
2019-06-25T23:58:52.644Z,22.30
